Hancock County-Bar Harbor Airport Bar Harbor US
ICAO: KBHB
IATA: BHB
Category: Medium
Scheduled Services: Yes

Elevation: 83 ft
TransAlt. 18000 ft.

Airport Communications:
BANGOR APP/DEP:124.5
AWOS 3:118.025
CLNC DEL:119.9
CTAF/UNICOM:123

KBHB Zoom In..

If you have problems with the map follow the link
https://www.worldairports.se/pages/airport.php?
ICAO=KBHB

Runways:

(A) RW 04 length 5200 ft width 100 ft
---- / hdg 44

(B) RW 17 length 3253 ft width 75 ft
---- / hdg 169

(C) RW 22 length 5200 ft width 100 ft
ILS 108.30 / hdg 224

(D) RW 35 length 3253 ft width 75 ft
---- / hdg 349

Location; KBHB
Day. 16 / Time. 11.21 Zulu
* Altimeter: 29.94
* Temperature: -01° c. -30.2°f.
* Wind from: 070° Speed 11 kn with Gusts up to 16 kn.
Dewpoint: -02° c.
Visibility: 1 Statute Miles.
Clouds: Overcast 500 ft.
Conditions: Light Snow.Conditions: Mist.

KBHB 161121Z AUTO 07011G16KT 1SM -SN BR OVC005 M01/M02 A2994 RMK AO2 P0002 FZRANO RVRNO


Wind From 070°
Speed 11 kn.

 
 
jpsmedia.com for Web Design worldairports.se 2018   terms of use